createdAt,value
2023-04-16T00:00:58.013Z,66.78
2023-04-16T00:02:01.887Z,69.70
2023-04-16T00:03:05.812Z,70.93
2023-04-16T00:04:09.872Z,69.68
2023-04-16T00:05:14.588Z,72.63
2023-04-16T00:06:18.238Z,76.10
2023-04-16T00:07:21.904Z,73.67
2023-04-16T00:08:25.548Z,67.63
2023-04-16T00:09:29.250Z,71.82
2023-04-16T00:10:32.951Z,67.82
2023-04-16T00:11:36.614Z,68.55
2023-04-16T00:12:40.290Z,69.33
2023-04-16T00:13:43.953Z,69.15
2023-04-16T00:14:47.593Z,69.18
2023-04-16T00:15:52.908Z,66.57
2023-04-16T00:16:56.563Z,67.78
2023-04-16T00:18:00.247Z,64.60
2023-04-16T00:19:03.883Z,69.57
2023-04-16T00:20:08.581Z,65.65
2023-04-16T00:21:12.250Z,68.35
2023-04-16T00:22:15.921Z,66.22
2023-04-16T00:23:19.567Z,71.20
2023-04-16T00:24:23.186Z,73.03
2023-04-16T00:25:26.790Z,70.03
2023-04-16T00:26:30.561Z,68.38
2023-04-16T00:27:34.278Z,70.38
2023-04-16T00:28:38.181Z,70.40
2023-04-16T00:29:41.843Z,65.47
2023-04-16T00:30:45.533Z,72.30
2023-04-16T00:31:50.954Z,73.80
2023-04-16T00:32:54.669Z,68.60
2023-04-16T00:33:58.682Z,67.33
2023-04-16T00:35:02.296Z,71.43
2023-04-16T00:36:06.681Z,66.45
2023-04-16T00:37:10.403Z,65.03
2023-04-16T00:38:14.201Z,73.82
2023-04-16T00:39:17.860Z,67.23
2023-04-16T00:40:21.588Z,70.43
2023-04-16T00:41:25.535Z,63.67
2023-04-16T00:42:29.193Z,66.97
2023-04-16T00:43:32.849Z,67.32
2023-04-16T00:44:36.544Z,69.87
2023-04-16T00:45:40.237Z,70.13
2023-04-16T00:46:44.596Z,68.10
2023-04-16T00:47:50.189Z,72.72
2023-04-16T00:48:57.240Z,71.47
2023-04-16T00:50:01.012Z,73.17
2023-04-16T00:51:06.496Z,72.53
2023-04-16T00:52:12.231Z,70.50
2023-04-16T00:53:16.332Z,69.43
2023-04-16T00:54:20.294Z,68.85
2023-04-16T00:55:24.128Z,67.13
2023-04-16T00:56:27.899Z,70.35
2023-04-16T00:57:32.054Z,67.43
2023-04-16T00:58:36.138Z,70.93
2023-04-16T00:59:39.750Z,64.72
2023-04-16T01:00:43.677Z,68.70
2023-04-16T01:01:47.520Z,70.20
2023-04-16T01:02:53.155Z,76.57
2023-04-16T01:03:57.156Z,73.40
2023-04-16T01:05:02.079Z,75.78
2023-04-16T01:06:07.002Z,75.77
2023-04-16T01:07:10.642Z,78.55
2023-04-16T01:08:18.506Z,82.57
2023-04-16T01:09:23.402Z,78.03
2023-04-16T01:10:27.095Z,80.65
2023-04-16T01:11:30.746Z,79.70
2023-04-16T01:12:34.442Z,75.90
2023-04-16T01:13:38.366Z,76.25
2023-04-16T01:14:41.973Z,80.05
2023-04-16T01:15:45.782Z,73.22
2023-04-16T01:16:49.422Z,74.90
2023-04-16T01:17:54.740Z,75.10
2023-04-16T01:18:58.404Z,74.88
2023-04-16T01:20:02.209Z,70.32
2023-04-16T01:21:07.742Z,68.32
2023-04-16T01:22:11.414Z,69.47
2023-04-16T01:23:15.134Z,69.68
2023-04-16T01:24:18.726Z,66.03
2023-04-16T01:25:22.396Z,72.28
2023-04-16T01:26:26.013Z,69.53
2023-04-16T01:27:29.721Z,68.07
2023-04-16T01:28:33.406Z,66.35
2023-04-16T01:29:37.092Z,67.82
2023-04-16T01:30:40.853Z,65.90
2023-04-16T01:31:44.691Z,69.18
2023-04-16T01:32:48.551Z,64.53
2023-04-16T01:33:52.344Z,71.65
2023-04-16T01:34:56.045Z,68.78
2023-04-16T01:35:59.872Z,63.75
2023-04-16T01:37:06.159Z,62.42
2023-04-16T01:38:10.386Z,69.87
2023-04-16T01:39:14.052Z,64.22
2023-04-16T01:40:17.774Z,71.38
2023-04-16T01:41:21.503Z,66.65
2023-04-16T01:42:25.161Z,64.78
2023-04-16T01:43:28.850Z,66.03
2023-04-16T01:44:32.571Z,64.90
2023-04-16T01:45:36.575Z,67.05
2023-04-16T01:46:40.498Z,65.38
2023-04-16T01:47:44.511Z,61.45
2023-04-16T01:48:48.367Z,68.77
2023-04-16T01:49:52.179Z,65.53
2023-04-16T01:50:55.872Z,64.75
2023-04-16T01:51:59.587Z,57.92
2023-04-16T01:53:05.090Z,61.38
2023-04-16T01:54:09.113Z,63.00
2023-04-16T01:55:12.922Z,65.43
2023-04-16T01:56:16.588Z,65.00
2023-04-16T01:57:20.272Z,67.03
2023-04-16T01:58:23.985Z,61.67
2023-04-16T01:59:27.609Z,63.20
2023-04-16T02:00:31.379Z,65.53
2023-04-16T02:01:35.128Z,64.45
2023-04-16T02:02:38.985Z,60.90
2023-04-16T02:03:43.104Z,65.95
2023-04-16T02:04:47.132Z,60.03
2023-04-16T02:05:50.812Z,58.35
2023-04-16T02:06:54.412Z,58.78
2023-04-16T02:07:58.051Z,57.75
2023-04-16T02:09:03.480Z,57.88
2023-04-16T02:10:08.133Z,51.20
2023-04-16T02:11:11.961Z,57.65
2023-04-16T02:12:15.934Z,55.72
2023-04-16T02:13:19.932Z,52.42
2023-04-16T02:14:23.605Z,54.40
2023-04-16T02:15:27.320Z,60.73
2023-04-16T02:16:31.146Z,54.17
2023-04-16T02:17:34.887Z,49.88
2023-04-16T02:18:38.551Z,53.15
2023-04-16T02:19:42.218Z,50.63
2023-04-16T02:20:46.962Z,48.97
2023-04-16T02:21:52.077Z,47.30
2023-04-16T02:22:55.741Z,49.25
2023-04-16T02:23:59.350Z,50.63
2023-04-16T02:25:04.869Z,46.00
2023-04-16T02:26:08.692Z,43.57
2023-04-16T02:27:12.464Z,44.97
2023-04-16T02:28:17.950Z,42.47
2023-04-16T02:29:21.679Z,41.08
2023-04-16T02:30:25.517Z,45.10
2023-04-16T02:31:29.219Z,42.70
2023-04-16T02:32:32.926Z,41.60
2023-04-16T02:33:36.612Z,41.67
2023-04-16T02:34:40.419Z,39.42
2023-04-16T02:35:44.390Z,39.88
2023-04-16T02:36:48.071Z,40.37
2023-04-16T02:37:51.719Z,37.40
2023-04-16T02:38:55.379Z,38.63
2023-04-16T02:39:59.110Z,36.25
2023-04-16T02:41:04.493Z,38.13
2023-04-16T02:42:08.097Z,35.80
2023-04-16T02:43:11.784Z,39.55
2023-04-16T02:44:15.361Z,35.70
2023-04-16T02:45:19.114Z,39.25
2023-04-16T02:46:23.008Z,38.63
2023-04-16T02:47:26.887Z,37.67
2023-04-16T02:48:30.640Z,38.85
2023-04-16T02:49:34.353Z,37.10
2023-04-16T02:50:38.049Z,38.22
2023-04-16T02:51:41.823Z,40.47
2023-04-16T02:52:45.478Z,34.77
2023-04-16T02:53:49.118Z,37.10
2023-04-16T02:54:52.796Z,37.70
2023-04-16T02:55:57.210Z,35.80
2023-04-16T02:57:02.947Z,41.45
2023-04-16T02:58:06.610Z,36.73
2023-04-16T02:59:10.579Z,39.83
2023-04-16T03:00:14.896Z,38.92
2023-04-16T03:01:18.588Z,37.35
2023-04-16T03:02:22.380Z,37.60
2023-04-16T03:03:28.943Z,37.03
2023-04-16T03:04:34.260Z,37.45
2023-04-16T03:05:39.737Z,39.58
2023-04-16T03:06:43.988Z,37.35
2023-04-16T03:07:47.718Z,39.75
2023-04-16T03:08:51.402Z,38.03
2023-04-16T03:09:55.060Z,39.88
2023-04-16T03:10:58.728Z,43.60
2023-04-16T03:12:04.107Z,40.00
2023-04-16T03:13:08.360Z,40.78
2023-04-16T03:14:11.999Z,36.73
2023-04-16T03:15:15.668Z,40.13
2023-04-16T03:16:19.435Z,40.70
2023-04-16T03:17:23.227Z,42.28
2023-04-16T03:18:26.845Z,44.45
2023-04-16T03:19:30.662Z,44.47
2023-04-16T03:20:34.397Z,41.17
2023-04-16T03:21:38.021Z,41.53
2023-04-16T03:22:41.669Z,38.95
2023-04-16T03:23:45.340Z,41.83
2023-04-16T03:24:49.036Z,43.37
2023-04-16T03:25:52.842Z,43.80
2023-04-16T03:26:58.332Z,40.70
2023-04-16T03:28:03.727Z,41.95
2023-04-16T03:29:07.717Z,44.67
2023-04-16T03:30:13.878Z,43.80
2023-04-16T03:31:17.565Z,39.08
2023-04-16T03:32:21.237Z,41.83
2023-04-16T03:33:24.977Z,42.13
2023-04-16T03:34:28.686Z,38.15
2023-04-16T03:35:32.382Z,40.20
2023-04-16T03:36:36.065Z,43.97
2023-04-16T03:37:39.790Z,44.10
2023-04-16T03:38:43.384Z,45.65
2023-04-16T03:39:47.102Z,48.17
2023-04-16T03:40:50.724Z,42.10
2023-04-16T03:41:54.391Z,41.35
2023-04-16T03:42:58.119Z,44.65
2023-04-16T03:44:03.378Z,47.90
2023-04-16T03:45:07.906Z,40.53
2023-04-16T03:46:11.819Z,41.67
2023-04-16T03:47:15.761Z,42.83
2023-04-16T03:48:19.464Z,44.53
2023-04-16T03:49:23.158Z,41.70
2023-04-16T03:50:26.836Z,45.92
2023-04-16T03:51:30.575Z,41.83
2023-04-16T03:52:34.163Z,42.20
2023-04-16T03:53:37.862Z,46.40
2023-04-16T03:54:41.478Z,44.90
2023-04-16T03:55:45.179Z,47.85
2023-04-16T03:56:48.968Z,44.60
2023-04-16T03:57:52.859Z,44.78
2023-04-16T03:58:56.478Z,44.38
2023-04-16T04:00:01.813Z,43.33
2023-04-16T04:01:05.617Z,45.95
2023-04-16T04:02:09.389Z,45.17
2023-04-16T04:03:13.524Z,47.85
2023-04-16T04:04:18.059Z,48.15
2023-04-16T04:05:21.835Z,45.95
2023-04-16T04:06:25.622Z,47.53
2023-04-16T04:07:29.308Z,48.73
2023-04-16T04:08:33.100Z,46.50
2023-04-16T04:09:36.820Z,47.60
2023-04-16T04:10:40.436Z,47.97
2023-04-16T04:11:44.131Z,50.55
2023-04-16T04:12:48.106Z,54.43
2023-04-16T04:13:51.736Z,49.15
2023-04-16T04:14:55.522Z,53.80
2023-04-16T04:16:00.829Z,51.50
2023-04-16T04:17:04.496Z,48.97
2023-04-16T04:18:08.147Z,49.30
2023-04-16T04:19:12.184Z,54.58
2023-04-16T04:20:15.867Z,52.28
2023-04-16T04:21:19.571Z,53.97
2023-04-16T04:22:23.214Z,54.45
2023-04-16T04:23:26.835Z,50.80
2023-04-16T04:24:30.507Z,53.22
2023-04-16T04:25:34.188Z,53.22
2023-04-16T04:26:37.887Z,60.65
2023-04-16T04:27:41.696Z,55.40
2023-04-16T04:28:45.397Z,59.77
2023-04-16T04:29:49.014Z,53.78
2023-04-16T04:30:52.805Z,54.10
2023-04-16T04:31:58.191Z,52.92
2023-04-16T04:33:02.006Z,61.10
2023-04-16T04:34:05.781Z,56.60
2023-04-16T04:35:10.247Z,55.95
2023-04-16T04:36:13.865Z,59.92
2023-04-16T04:37:17.666Z,54.65
2023-04-16T04:38:21.322Z,56.45
2023-04-16T04:39:25.033Z,59.47
2023-04-16T04:40:28.805Z,57.55
2023-04-16T04:41:32.846Z,63.92
2023-04-16T04:42:36.603Z,55.50
2023-04-16T04:43:40.308Z,56.33
2023-04-16T04:44:43.957Z,57.63
2023-04-16T04:45:47.701Z,55.67
2023-04-16T04:46:51.439Z,56.10
2023-04-16T04:47:56.895Z,56.67
2023-04-16T04:49:00.661Z,58.53
2023-04-16T04:50:04.516Z,54.67
2023-04-16T04:51:08.213Z,62.63
2023-04-16T04:52:11.913Z,57.47
2023-04-16T04:53:15.587Z,51.97
2023-04-16T04:54:19.305Z,55.17
2023-04-16T04:55:22.993Z,55.37
2023-04-16T04:56:26.686Z,57.10
2023-04-16T04:57:30.364Z,53.13
2023-04-16T04:58:34.096Z,56.78
2023-04-16T04:59:37.747Z,58.20
2023-04-16T05:00:41.472Z,56.83
2023-04-16T05:01:45.251Z,61.92
2023-04-16T05:02:49.110Z,56.25
2023-04-16T05:03:54.574Z,60.15
2023-04-16T05:04:58.296Z,61.53
2023-04-16T05:06:01.924Z,54.03
2023-04-16T05:07:05.677Z,59.28
2023-04-16T05:08:09.370Z,61.47
2023-04-16T05:09:13.048Z,59.45
2023-04-16T05:10:16.828Z,61.05
2023-04-16T05:11:20.426Z,59.77
2023-04-16T05:12:24.060Z,60.72
2023-04-16T05:13:27.876Z,61.88
2023-04-16T05:14:31.474Z,61.10
2023-04-16T05:15:35.316Z,58.53
2023-04-16T05:16:39.279Z,53.57
2023-04-16T05:17:42.977Z,61.28
2023-04-16T05:18:46.646Z,65.93
2023-04-16T05:19:51.918Z,67.45
2023-04-16T05:20:55.503Z,62.53
2023-04-16T05:21:59.180Z,60.40
2023-04-16T05:23:02.884Z,68.72
2023-04-16T05:24:07.046Z,69.03
2023-04-16T05:25:10.960Z,68.25
2023-04-16T05:26:14.599Z,77.15
2023-04-16T05:27:18.360Z,66.53
2023-04-16T05:28:22.020Z,75.85
2023-04-16T05:29:25.700Z,81.80
2023-04-16T05:30:29.361Z,72.68
2023-04-16T05:31:33.281Z,73.35
2023-04-16T05:32:36.933Z,66.47
2023-04-16T05:33:40.602Z,81.90
2023-04-16T05:34:44.256Z,72.68
2023-04-16T05:35:49.714Z,70.13
2023-04-16T05:36:53.450Z,74.80
2023-04-16T05:37:57.108Z,64.93
2023-04-16T05:39:00.687Z,67.80
2023-04-16T05:40:04.317Z,67.20
2023-04-16T05:41:07.970Z,59.90
2023-04-16T05:42:11.675Z,67.78
2023-04-16T05:43:15.343Z,64.23
2023-04-16T05:44:18.914Z,66.55
2023-04-16T05:45:22.797Z,65.88
2023-04-16T05:46:26.532Z,68.97
2023-04-16T05:47:30.268Z,61.63
2023-04-16T05:48:34.039Z,58.53
2023-04-16T05:49:37.699Z,62.35
2023-04-16T05:50:41.390Z,57.75
2023-04-16T05:51:47.360Z,54.45
2023-04-16T05:52:51.064Z,50.90
2023-04-16T05:53:54.757Z,57.83
2023-04-16T05:54:58.467Z,54.53
2023-04-16T05:56:02.257Z,56.60
2023-04-16T05:57:05.920Z,50.05
2023-04-16T05:58:09.582Z,52.60
2023-04-16T05:59:13.443Z,50.77
2023-04-16T06:00:17.400Z,50.72
2023-04-16T06:01:22.055Z,48.08
2023-04-16T06:02:26.028Z,52.38
2023-04-16T06:03:29.819Z,54.72
2023-04-16T06:04:33.521Z,49.57
2023-04-16T06:05:37.112Z,52.28
2023-04-16T06:06:40.833Z,54.17
2023-04-16T06:07:46.244Z,50.60
2023-04-16T06:08:49.852Z,52.47
2023-04-16T06:09:53.606Z,48.77
2023-04-16T06:10:57.252Z,55.97
2023-04-16T06:12:01.241Z,53.00
2023-04-16T06:13:05.043Z,51.50
2023-04-16T06:14:08.735Z,49.75
2023-04-16T06:15:12.929Z,51.30
2023-04-16T06:16:16.555Z,50.45
2023-04-16T06:17:20.526Z,48.03
2023-04-16T06:18:24.302Z,51.25
2023-04-16T06:19:28.007Z,52.53
2023-04-16T06:20:31.778Z,49.57
2023-04-16T06:21:35.486Z,49.47
2023-04-16T06:22:39.275Z,51.05
2023-04-16T06:23:44.694Z,51.38
2023-04-16T06:24:48.422Z,51.65
2023-04-16T06:25:52.113Z,46.33
2023-04-16T06:26:55.864Z,54.65
2023-04-16T06:27:59.528Z,50.08
2023-04-16T06:29:03.182Z,51.05
2023-04-16T06:30:12.007Z,50.30
2023-04-16T06:31:15.786Z,55.37
2023-04-16T06:32:19.527Z,49.55
2023-04-16T06:33:23.422Z,49.90
2023-04-16T06:34:29.565Z,53.45
2023-04-16T06:35:33.316Z,51.92
2023-04-16T06:36:36.938Z,50.60
2023-04-16T06:37:40.668Z,54.58
2023-04-16T06:38:46.192Z,55.42
2023-04-16T06:39:49.850Z,54.28
2023-04-16T06:40:53.740Z,54.45
2023-04-16T06:41:57.604Z,57.97
2023-04-16T06:43:01.473Z,53.45
2023-04-16T06:44:05.166Z,52.72
2023-04-16T06:45:10.039Z,54.90
2023-04-16T06:46:13.622Z,49.13
2023-04-16T06:47:17.798Z,48.63
2023-04-16T06:48:21.563Z,47.92
2023-04-16T06:49:25.292Z,45.85
2023-04-16T06:50:29.098Z,46.53
2023-04-16T06:51:32.894Z,47.42
2023-04-16T06:52:36.887Z,50.83
2023-04-16T06:53:40.645Z,48.83
2023-04-16T06:54:45.965Z,47.10
2023-04-16T06:55:49.635Z,50.88
2023-04-16T06:56:53.240Z,49.42
2023-04-16T06:57:56.833Z,43.53
2023-04-16T06:59:00.654Z,48.50
2023-04-16T07:00:04.876Z,49.03
2023-04-16T07:01:08.577Z,47.00
2023-04-16T07:02:12.408Z,51.13
2023-04-16T07:03:16.188Z,47.30
2023-04-16T07:04:20.116Z,49.92
2023-04-16T07:05:23.743Z,48.45
2023-04-16T07:06:27.481Z,48.25
2023-04-16T07:07:31.216Z,50.75
2023-04-16T07:08:34.927Z,49.73
2023-04-16T07:09:38.558Z,47.47
2023-04-16T07:10:43.839Z,54.20
2023-04-16T07:11:47.639Z,48.05
2023-04-16T07:12:51.382Z,45.70
2023-04-16T07:13:55.112Z,44.43
2023-04-16T07:14:58.793Z,45.88
2023-04-16T07:16:02.481Z,46.53
2023-04-16T07:17:06.358Z,47.50
2023-04-16T07:18:10.074Z,51.80
2023-04-16T07:19:13.749Z,46.77
2023-04-16T07:20:17.463Z,48.55
2023-04-16T07:21:21.181Z,53.55
2023-04-16T07:22:24.808Z,50.00
2023-04-16T07:23:28.512Z,45.60
2023-04-16T07:24:32.216Z,48.80
2023-04-16T07:25:35.900Z,50.50
2023-04-16T07:26:41.269Z,49.70
2023-04-16T07:27:45.019Z,51.10
2023-04-16T07:28:48.763Z,50.75
2023-04-16T07:29:52.489Z,46.70
2023-04-16T07:30:56.171Z,49.67
2023-04-16T07:31:59.965Z,50.92
2023-04-16T07:33:04.650Z,44.83
2023-04-16T07:34:08.412Z,45.50
2023-04-16T07:35:12.153Z,44.57
2023-04-16T07:36:15.803Z,44.88
2023-04-16T07:37:19.450Z,45.28
2023-04-16T07:38:23.741Z,46.40
2023-04-16T07:39:27.499Z,47.67
2023-04-16T07:40:31.337Z,48.30
2023-04-16T07:41:35.020Z,49.47
2023-04-16T07:42:40.311Z,49.50
2023-04-16T07:43:43.973Z,47.92
2023-04-16T07:44:47.656Z,50.72
2023-04-16T07:45:51.241Z,45.83
2023-04-16T07:46:54.947Z,49.63
2023-04-16T07:47:58.618Z,51.00
2023-04-16T07:49:02.371Z,48.30
2023-04-16T07:50:06.953Z,47.95
2023-04-16T07:51:10.745Z,51.97
2023-04-16T07:52:14.625Z,43.65
2023-04-16T07:53:18.283Z,46.38
2023-04-16T07:54:21.902Z,47.45
2023-04-16T07:55:25.734Z,46.47
2023-04-16T07:56:29.404Z,44.77
2023-04-16T07:57:33.188Z,49.15
2023-04-16T07:58:38.447Z,44.78
2023-04-16T07:59:42.102Z,45.90
2023-04-16T08:00:45.800Z,55.63
2023-04-16T08:01:49.804Z,51.10
2023-04-16T08:02:53.890Z,53.17
2023-04-16T08:03:58.066Z,45.17
2023-04-16T08:05:01.910Z,44.83
2023-04-16T08:06:05.727Z,45.85
2023-04-16T08:07:09.424Z,46.73
2023-04-16T08:08:13.263Z,46.63
2023-04-16T08:09:16.917Z,44.78
2023-04-16T08:10:20.697Z,49.25
2023-04-16T08:11:25.083Z,47.05
2023-04-16T08:12:29.875Z,50.30
2023-04-16T08:13:33.713Z,41.90
2023-04-16T08:14:39.162Z,44.40
2023-04-16T08:15:42.847Z,44.78
2023-04-16T08:16:50.169Z,44.65
2023-04-16T08:17:53.923Z,43.20
2023-04-16T08:18:57.665Z,42.38
2023-04-16T08:20:01.560Z,43.83
2023-04-16T08:21:05.348Z,42.67
2023-04-16T08:22:09.118Z,44.67
2023-04-16T08:23:12.804Z,49.70
2023-04-16T08:24:16.583Z,46.35
2023-04-16T08:25:20.306Z,46.33
2023-04-16T08:26:23.995Z,41.67
2023-04-16T08:27:27.659Z,44.17
2023-04-16T08:28:31.461Z,41.70
2023-04-16T08:29:35.157Z,45.65
2023-04-16T08:30:40.439Z,41.47
2023-04-16T08:31:44.293Z,44.47
2023-04-16T08:32:50.049Z,49.67
2023-04-16T08:33:54.069Z,41.43
2023-04-16T08:34:58.270Z,43.08
2023-04-16T08:36:01.984Z,47.13
2023-04-16T08:37:05.699Z,47.30
2023-04-16T08:38:09.328Z,51.88
2023-04-16T08:39:13.485Z,47.70
2023-04-16T08:40:17.893Z,48.08
2023-04-16T08:41:24.326Z,48.55
2023-04-16T08:42:33.143Z,48.10
2023-04-16T08:43:39.022Z,45.20
2023-04-16T08:44:49.315Z,48.67
2023-04-16T08:45:56.798Z,48.35
2023-04-16T08:47:01.737Z,46.97
2023-04-16T08:48:07.323Z,49.50
2023-04-16T08:49:17.926Z,47.90
2023-04-16T08:50:25.463Z,50.17
2023-04-16T08:51:34.767Z,46.20
2023-04-16T08:52:44.019Z,47.97
2023-04-16T08:53:53.052Z,46.38
2023-04-16T08:55:04.714Z,49.83
2023-04-16T08:56:12.506Z,44.57
2023-04-16T08:57:20.938Z,50.22
2023-04-16T08:58:29.981Z,48.08
2023-04-16T08:59:34.034Z,47.92
2023-04-16T09:00:40.345Z,49.50
2023-04-16T09:01:46.357Z,48.20
2023-04-16T09:02:50.877Z,43.10
2023-04-16T09:03:55.343Z,45.03
2023-04-16T09:05:01.138Z,48.53
2023-04-16T09:06:07.159Z,47.00
2023-04-16T09:07:11.304Z,46.90
2023-04-16T09:08:15.182Z,47.17
2023-04-16T09:09:21.785Z,48.88
2023-04-16T09:10:27.605Z,45.40
2023-04-16T09:11:31.360Z,47.47
2023-04-16T09:12:36.366Z,52.30
2023-04-16T09:13:40.060Z,48.42
2023-04-16T09:14:43.892Z,45.17
2023-04-16T09:15:48.050Z,48.47
2023-04-16T09:16:54.410Z,47.22
2023-04-16T09:17:58.111Z,50.90
2023-04-16T09:19:01.942Z,49.92
2023-04-16T09:20:07.603Z,50.35
2023-04-16T09:21:11.765Z,47.13
2023-04-16T09:22:15.428Z,44.58
2023-04-16T09:23:19.195Z,48.13
2023-04-16T09:24:23.774Z,49.53
2023-04-16T09:25:27.619Z,47.15
2023-04-16T09:26:31.920Z,50.47
2023-04-16T09:27:36.049Z,48.08
2023-04-16T09:28:43.783Z,53.03
2023-04-16T09:29:47.390Z,49.35
2023-04-16T09:30:51.075Z,51.92
2023-04-16T09:32:05.641Z,46.08
2023-04-16T09:33:17.965Z,42.70
2023-04-16T09:34:21.585Z,45.00
2023-04-16T09:35:25.218Z,49.22
2023-04-16T09:36:28.960Z,47.22
2023-04-16T09:37:33.025Z,46.58
2023-04-16T09:38:49.492Z,48.58
2023-04-16T09:39:57.923Z,46.57
2023-04-16T09:41:08.138Z,44.25
2023-04-16T09:42:12.017Z,46.95
2023-04-16T09:43:16.980Z,44.35
2023-04-16T09:44:20.677Z,45.53
2023-04-16T09:45:24.447Z,47.03
2023-04-16T09:46:32.265Z,50.45
2023-04-16T09:47:44.689Z,47.10
2023-04-16T09:48:48.356Z,48.00
2023-04-16T09:49:52.051Z,43.72
2023-04-16T09:50:55.692Z,45.13
2023-04-16T09:51:59.381Z,44.70
2023-04-16T09:53:03.686Z,41.40
2023-04-16T09:54:07.615Z,49.13
2023-04-16T09:55:11.331Z,47.50
2023-04-16T09:56:14.998Z,44.13
2023-04-16T09:57:22.106Z,46.88
2023-04-16T09:58:25.889Z,47.75
2023-04-16T09:59:29.644Z,42.30
2023-04-16T10:00:33.298Z,48.42
2023-04-16T10:01:38.145Z,54.10
2023-04-16T10:02:43.551Z,50.45
2023-04-16T10:03:51.241Z,46.90
2023-04-16T10:04:55.747Z,46.50
2023-04-16T10:06:02.098Z,47.70
2023-04-16T10:07:07.333Z,48.57
2023-04-16T10:08:15.009Z,43.45
2023-04-16T10:09:18.583Z,45.15
2023-04-16T10:10:23.073Z,49.30
2023-04-16T10:11:26.750Z,47.33
2023-04-16T10:12:30.576Z,47.37
2023-04-16T10:13:34.240Z,46.95
2023-04-16T10:14:37.937Z,44.85
2023-04-16T10:15:42.452Z,44.83
2023-04-16T10:16:46.499Z,44.67
2023-04-16T10:17:53.133Z,42.13
2023-04-16T10:18:57.660Z,41.90
2023-04-16T10:20:02.442Z,41.53
2023-04-16T10:21:06.450Z,44.17
2023-04-16T10:22:10.598Z,42.63
2023-04-16T10:23:14.826Z,42.73
2023-04-16T10:24:20.810Z,45.72
2023-04-16T10:25:24.991Z,45.80
2023-04-16T10:26:30.306Z,42.58
2023-04-16T10:27:34.373Z,45.53
2023-04-16T10:28:38.463Z,42.97
2023-04-16T10:29:42.388Z,38.95
2023-04-16T10:30:49.249Z,41.45
2023-04-16T10:31:54.043Z,43.47
2023-04-16T10:33:00.696Z,45.35
2023-04-16T10:34:05.453Z,46.80
2023-04-16T10:35:09.714Z,40.20
2023-04-16T10:36:14.763Z,41.67
2023-04-16T10:37:18.429Z,42.08
2023-04-16T10:38:26.887Z,38.42
2023-04-16T10:39:30.587Z,38.83
2023-04-16T10:40:36.125Z,38.47
2023-04-16T10:41:40.391Z,41.88
2023-04-16T10:42:54.156Z,39.55
2023-04-16T10:44:06.397Z,44.40
2023-04-16T10:45:12.578Z,41.13
2023-04-16T10:46:20.836Z,41.88
2023-04-16T10:47:27.108Z,43.63
2023-04-16T10:48:42.359Z,39.15
2023-04-16T10:49:53.517Z,40.55
2023-04-16T10:50:58.249Z,36.40
2023-04-16T10:52:08.171Z,39.97
2023-04-16T10:53:25.862Z,36.25
2023-04-16T10:54:30.592Z,40.00
2023-04-16T10:55:34.228Z,42.80
2023-04-16T10:56:38.338Z,39.43
2023-04-16T10:57:42.026Z,40.55
2023-04-16T10:58:45.725Z,36.63
2023-04-16T10:59:50.540Z,40.58
2023-04-16T11:00:54.416Z,39.78
2023-04-16T11:02:00.633Z,38.43
2023-04-16T11:03:06.157Z,43.38
2023-04-16T11:04:40.412Z,38.97
2023-04-16T11:05:47.717Z,39.45
2023-04-16T11:07:03.201Z,39.88
2023-04-16T11:08:16.252Z,42.43
2023-04-16T11:10:00.711Z,44.42
2023-04-16T11:11:06.506Z,38.83
2023-04-16T11:12:12.903Z,39.50
2023-04-16T11:13:19.328Z,40.03
2023-04-16T11:14:22.962Z,35.17
2023-04-16T11:15:26.798Z,37.92
2023-04-16T11:16:33.433Z,37.88
2023-04-16T11:17:39.849Z,37.88
2023-04-16T11:18:50.877Z,39.88
2023-04-16T11:19:57.335Z,38.60
2023-04-16T11:21:01.318Z,37.55
2023-04-16T11:22:05.406Z,37.35
2023-04-16T11:23:12.103Z,37.95
2023-04-16T11:24:15.718Z,37.67
2023-04-16T11:25:22.746Z,43.67
2023-04-16T11:26:28.289Z,38.50
2023-04-16T11:27:32.439Z,37.25
2023-04-16T11:28:36.692Z,40.35
2023-04-16T11:29:40.317Z,37.38
2023-04-16T11:30:44.006Z,39.33
2023-04-16T11:31:51.938Z,35.22
2023-04-16T11:32:55.912Z,40.15
2023-04-16T11:33:59.749Z,37.42
2023-04-16T11:35:06.294Z,37.30
2023-04-16T11:36:10.186Z,39.07
2023-04-16T11:37:13.956Z,34.72
2023-04-16T11:38:19.801Z,40.65
2023-04-16T11:39:23.589Z,40.42
2023-04-16T11:40:31.225Z,35.45
2023-04-16T11:41:34.958Z,38.63
2023-04-16T11:42:39.288Z,39.50
2023-04-16T11:43:42.984Z,37.88
2023-04-16T11:44:46.744Z,38.05
2023-04-16T11:45:58.384Z,38.83
2023-04-16T11:47:07.410Z,40.13
2023-04-16T11:48:11.310Z,37.40
2023-04-16T11:49:15.018Z,37.90
2023-04-16T11:50:22.678Z,39.45
2023-04-16T11:51:26.480Z,41.17
2023-04-16T11:52:31.720Z,38.37
2023-04-16T11:53:35.484Z,40.40
2023-04-16T11:54:39.349Z,40.95
2023-04-16T11:55:45.154Z,38.22
2023-04-16T11:56:49.913Z,41.47
2023-04-16T11:57:53.556Z,40.23
2023-04-16T11:59:14.426Z,40.03
2023-04-16T12:00:18.472Z,41.72
2023-04-16T12:01:22.369Z,41.28
2023-04-16T12:02:39.248Z,41.63
2023-04-16T12:03:43.905Z,39.43
2023-04-16T12:04:48.032Z,39.90
2023-04-16T12:05:53.376Z,39.97
2023-04-16T12:07:14.783Z,38.63
2023-04-16T12:08:30.488Z,38.70
2023-04-16T12:09:34.436Z,42.53
2023-04-16T12:10:53.149Z,40.65
2023-04-16T12:11:56.768Z,40.92
2023-04-16T12:13:12.328Z,38.65
2023-04-16T12:14:16.049Z,39.38
2023-04-16T12:15:19.895Z,40.93
2023-04-16T12:16:26.125Z,38.65
2023-04-16T12:17:30.271Z,41.53
2023-04-16T12:18:34.095Z,39.90
2023-04-16T12:19:50.214Z,40.42
2023-04-16T12:20:55.682Z,38.63
2023-04-16T12:22:02.287Z,37.38
2023-04-16T12:23:05.954Z,39.88
2023-04-16T12:24:11.264Z,42.53
2023-04-16T12:25:16.159Z,41.67
2023-04-16T12:26:19.800Z,41.27
2023-04-16T12:27:23.481Z,39.15
2023-04-16T12:28:31.845Z,40.60
2023-04-16T12:29:35.491Z,39.53
2023-04-16T12:30:50.934Z,40.17
2023-04-16T12:31:55.023Z,41.93
2023-04-16T12:33:16.666Z,41.35
2023-04-16T12:34:21.046Z,41.63
2023-04-16T12:35:34.871Z,40.25
2023-04-16T12:36:40.290Z,39.03
2023-04-16T12:37:43.838Z,44.33
2023-04-16T12:38:47.542Z,41.17
2023-04-16T12:39:51.233Z,40.63
2023-04-16T12:40:54.970Z,41.55
2023-04-16T12:41:58.594Z,43.03
2023-04-16T12:43:02.294Z,40.17
2023-04-16T12:44:07.750Z,45.80
2023-04-16T12:45:11.502Z,42.92
2023-04-16T12:46:15.135Z,45.13
2023-04-16T12:47:18.841Z,38.33
2023-04-16T12:48:22.500Z,43.70
2023-04-16T12:49:26.255Z,43.22
2023-04-16T12:50:29.980Z,42.05
2023-04-16T12:51:33.953Z,41.33
2023-04-16T12:52:39.420Z,45.40
2023-04-16T12:53:43.107Z,41.57
2023-04-16T12:54:46.874Z,44.38
2023-04-16T12:55:50.614Z,42.08
2023-04-16T12:56:54.294Z,41.55
2023-04-16T12:57:57.962Z,40.38
2023-04-16T12:59:01.554Z,43.00
2023-04-16T13:00:06.108Z,44.40
2023-04-16T13:01:09.762Z,40.80
2023-04-16T13:02:13.784Z,42.40
2023-04-16T13:03:17.575Z,43.60
2023-04-16T13:04:24.189Z,41.07
2023-04-16T13:05:29.275Z,46.25
2023-04-16T13:06:32.997Z,43.25
2023-04-16T13:07:38.561Z,46.85
2023-04-16T13:08:42.331Z,40.88
2023-04-16T13:09:46.305Z,42.07
2023-04-16T13:10:50.196Z,43.83
2023-04-16T13:11:53.853Z,42.80
2023-04-16T13:12:57.537Z,42.78
2023-04-16T13:14:01.195Z,43.20
2023-04-16T13:15:05.292Z,41.43
2023-04-16T13:16:09.072Z,41.25
2023-04-16T13:17:12.889Z,42.65
2023-04-16T13:18:16.664Z,45.67
2023-04-16T13:19:20.324Z,40.53
2023-04-16T13:20:24.609Z,42.30
2023-04-16T13:21:28.724Z,44.78
2023-04-16T13:22:32.411Z,45.47
2023-04-16T13:23:38.065Z,47.13
2023-04-16T13:24:41.702Z,41.92
2023-04-16T13:25:45.408Z,44.30
2023-04-16T13:26:49.108Z,47.60
2023-04-16T13:27:52.777Z,46.00
2023-04-16T13:28:56.479Z,44.17
2023-04-16T13:30:00.135Z,43.40
2023-04-16T13:31:12.221Z,46.07
2023-04-16T13:32:16.034Z,45.58
2023-04-16T13:33:19.797Z,44.03
2023-04-16T13:34:23.672Z,43.63
2023-04-16T13:35:27.820Z,46.00
2023-04-16T13:36:31.570Z,44.17
2023-04-16T13:37:36.034Z,43.13
2023-04-16T13:38:41.392Z,46.35
2023-04-16T13:39:45.010Z,43.78
2023-04-16T13:40:48.828Z,46.13
2023-04-16T13:41:52.492Z,43.43
2023-04-16T13:42:56.182Z,42.47
2023-04-16T13:43:59.777Z,46.05
2023-04-16T13:45:03.596Z,43.95
2023-04-16T13:46:07.411Z,44.70
2023-04-16T13:47:11.324Z,45.87
2023-04-16T13:48:14.946Z,46.58
2023-04-16T13:49:18.575Z,40.88
2023-04-16T13:50:22.343Z,44.45
2023-04-16T13:51:26.247Z,45.22
2023-04-16T13:52:29.999Z,40.53
2023-04-16T13:53:33.704Z,42.70